createdAt,value
2022-10-04T00:01:33.809Z,101820.72
2022-10-04T00:06:38.672Z,101818.97
2022-10-04T00:11:46.428Z,101826.00
2022-10-04T00:16:50.352Z,101822.44
2022-10-04T00:22:13.514Z,101822.22
2022-10-04T00:27:24.397Z,101827.25
2022-10-04T00:32:30.035Z,101828.06
2022-10-04T00:37:57.380Z,101815.69
2022-10-04T00:43:05.596Z,101827.00
2022-10-04T00:48:45.531Z,101829.47
2022-10-04T00:54:05.798Z,101817.16
2022-10-04T00:59:28.809Z,101823.16
2022-10-04T01:04:43.415Z,101812.16
2022-10-04T01:09:53.259Z,101813.53
2022-10-04T01:15:04.320Z,101801.97
2022-10-04T01:20:33.577Z,101809.91
2022-10-04T01:25:55.248Z,101811.44
2022-10-04T01:30:58.064Z,101807.38
2022-10-04T01:36:01.076Z,101809.81
2022-10-04T01:41:08.367Z,101804.25
2022-10-04T01:46:16.457Z,101801.44
2022-10-04T01:51:22.596Z,101803.09
2022-10-04T01:56:31.321Z,101805.63
2022-10-04T02:01:40.426Z,101801.06
2022-10-04T02:06:45.998Z,101802.69
2022-10-04T02:11:52.653Z,101801.78
2022-10-04T02:16:55.522Z,101806.25
2022-10-04T02:22:00.338Z,101796.59
2022-10-04T02:27:06.220Z,101797.63
2022-10-04T02:32:28.167Z,101790.59
2022-10-04T02:37:31.405Z,101778.28
2022-10-04T02:42:42.143Z,101787.78
2022-10-04T02:47:48.582Z,101784.88
2022-10-04T02:52:56.356Z,101776.75
2022-10-04T02:58:01.559Z,101768.38
2022-10-04T03:03:16.615Z,101768.91
2022-10-04T03:08:19.420Z,101775.75
2022-10-04T03:13:23.730Z,101771.28
2022-10-04T03:18:26.811Z,101782.66
2022-10-04T03:23:33.420Z,101773.56
2022-10-04T03:28:38.851Z,101776.03
2022-10-04T03:33:43.917Z,101772.44
2022-10-04T03:38:48.541Z,101771.56
2022-10-04T03:43:55.496Z,101779.38
2022-10-04T03:48:59.487Z,101764.44
2022-10-04T03:54:03.610Z,101761.44
2022-10-04T03:59:08.434Z,101772.53
2022-10-04T04:04:22.869Z,101776.22
2022-10-04T04:09:37.612Z,101769.53
2022-10-04T04:14:43.631Z,101766.41
2022-10-04T04:19:47.564Z,101768.16
2022-10-04T04:24:50.754Z,101770.72
2022-10-04T04:29:55.466Z,101760.59
2022-10-04T04:35:00.731Z,101773.06
2022-10-04T04:40:19.838Z,101769.03
2022-10-04T04:45:26.214Z,101771.19
2022-10-04T04:50:32.840Z,101758.53
2022-10-04T04:56:02.446Z,101761.69
2022-10-04T05:01:07.738Z,101754.94
2022-10-04T05:06:26.312Z,101759.69
2022-10-04T05:11:32.112Z,101764.66
2022-10-04T05:16:41.966Z,101764.56
2022-10-04T05:21:47.683Z,101773.38
2022-10-04T05:26:52.380Z,101770.94
2022-10-04T05:32:05.544Z,101769.44
2022-10-04T05:37:29.973Z,101766.19
2022-10-04T05:42:41.459Z,101790.19
2022-10-04T05:47:47.525Z,101788.75
2022-10-04T05:52:52.204Z,101789.16
2022-10-04T05:58:18.144Z,101789.44
2022-10-04T06:03:46.617Z,101795.00
2022-10-04T06:08:57.362Z,101780.22
2022-10-04T06:14:30.535Z,101790.13
2022-10-04T06:19:56.666Z,101794.88
2022-10-04T06:25:04.204Z,101801.28
2022-10-04T06:30:13.398Z,101806.84
2022-10-04T06:35:33.907Z,101810.38
2022-10-04T06:41:01.534Z,101814.13
2022-10-04T06:46:16.785Z,101810.34
2022-10-04T06:51:38.261Z,101817.94
2022-10-04T06:57:00.883Z,101823.81
2022-10-04T07:02:13.707Z,101828.13
2022-10-04T07:07:26.887Z,101826.16
2022-10-04T07:12:31.249Z,101822.50
2022-10-04T07:17:40.963Z,101817.00
2022-10-04T07:22:51.522Z,101818.84
2022-10-04T07:28:13.709Z,101815.00
2022-10-04T07:33:22.665Z,101823.31
2022-10-04T07:38:30.152Z,101822.00
2022-10-04T07:43:36.906Z,101830.47
2022-10-04T07:48:43.025Z,101820.81
2022-10-04T07:53:53.482Z,101827.13
2022-10-04T07:59:09.575Z,101819.38
2022-10-04T08:04:33.997Z,101818.06
2022-10-04T08:09:50.051Z,101821.97
2022-10-04T08:14:57.254Z,101832.00
2022-10-04T08:20:13.896Z,101831.56
2022-10-04T08:25:27.307Z,101832.34
2022-10-04T08:30:40.446Z,101820.63
2022-10-04T08:35:56.036Z,101830.84
2022-10-04T08:41:34.026Z,101827.88
2022-10-04T08:47:05.661Z,101835.41
2022-10-04T08:52:37.038Z,101850.16
2022-10-04T08:57:57.176Z,101850.72
2022-10-04T09:03:45.549Z,101846.75
2022-10-04T09:09:28.899Z,101851.78
2022-10-04T09:14:50.109Z,101845.19
2022-10-04T09:20:09.084Z,101838.66
2022-10-04T09:25:49.092Z,101850.78
2022-10-04T09:31:09.761Z,101842.84
2022-10-04T09:36:28.579Z,101847.19
2022-10-04T09:41:41.070Z,101842.41
2022-10-04T09:47:05.899Z,101848.13
2022-10-04T09:52:24.583Z,101847.66
2022-10-04T09:57:42.506Z,101847.50
2022-10-04T10:03:24.489Z,101832.03
2022-10-04T10:08:35.103Z,101828.09
2022-10-04T10:14:11.485Z,101829.78
2022-10-04T10:19:36.754Z,101817.59
2022-10-04T10:25:02.178Z,101822.41
2022-10-04T10:30:19.534Z,101817.25
2022-10-04T10:35:33.139Z,101822.19
2022-10-04T10:40:54.735Z,101819.19
2022-10-04T10:46:05.870Z,101813.59
2022-10-04T10:51:20.469Z,101821.84
2022-10-04T10:56:46.629Z,101819.06
2022-10-04T11:02:37.136Z,101819.13
2022-10-04T11:07:54.503Z,101814.88
2022-10-04T11:13:21.333Z,101807.88
2022-10-04T11:19:00.299Z,101797.69
2022-10-04T11:24:44.531Z,101808.13
2022-10-04T11:30:09.677Z,101806.44
2022-10-04T11:35:49.516Z,101804.34
2022-10-04T11:41:15.550Z,101801.81
2022-10-04T11:46:35.994Z,101804.75
2022-10-04T11:52:05.912Z,101795.25
2022-10-04T11:57:24.565Z,101781.50
2022-10-04T12:02:57.390Z,101775.03
2022-10-04T12:08:13.697Z,101764.03
2022-10-04T12:13:47.438Z,101755.91
2022-10-04T12:19:31.241Z,101743.19
2022-10-04T12:25:17.581Z,101740.31
2022-10-04T12:30:31.751Z,101744.34
2022-10-04T12:36:03.151Z,101736.63
2022-10-04T12:41:19.633Z,101743.09
2022-10-04T12:46:33.671Z,101733.03
2022-10-04T12:51:48.539Z,101727.16
2022-10-04T12:57:02.496Z,101714.09
2022-10-04T13:02:21.274Z,101711.81
2022-10-04T13:07:48.485Z,101712.38
2022-10-04T13:13:17.640Z,101706.03
2022-10-04T13:18:32.876Z,101713.25
2022-10-04T13:23:52.213Z,101705.03
2022-10-04T13:29:03.311Z,101697.44
2022-10-04T13:34:21.345Z,101696.91
2022-10-04T13:39:48.786Z,101677.53
2022-10-04T13:45:16.861Z,101678.75
2022-10-04T13:50:38.023Z,101672.25
2022-10-04T13:56:04.193Z,101669.84
2022-10-04T14:01:53.774Z,101682.25
2022-10-04T14:07:35.455Z,101657.75
2022-10-04T14:13:19.531Z,101663.78
2022-10-04T14:18:50.549Z,101663.03
2022-10-04T14:24:18.467Z,101655.78
2022-10-04T14:29:36.441Z,101654.78
2022-10-04T14:35:02.011Z,101650.91
2022-10-04T14:40:22.168Z,101647.28
2022-10-04T14:45:37.817Z,101631.06
2022-10-04T14:50:57.762Z,101633.69
2022-10-04T14:56:26.275Z,101616.81
2022-10-04T15:01:30.325Z,101615.78
2022-10-04T15:06:40.068Z,101597.00
2022-10-04T15:12:21.578Z,101606.75
2022-10-04T15:17:28.108Z,101609.13
2022-10-04T15:22:40.243Z,101593.69
2022-10-04T15:27:58.271Z,101595.88
2022-10-04T15:33:27.829Z,101591.97
2022-10-04T15:38:35.100Z,101598.97
2022-10-04T15:43:44.657Z,101602.25
2022-10-04T15:48:58.903Z,101589.69
2022-10-04T15:54:17.514Z,101592.97
2022-10-04T15:59:39.550Z,101592.44
2022-10-04T16:04:48.018Z,101595.59
2022-10-04T16:09:57.056Z,101595.09
2022-10-04T16:15:12.804Z,101582.19
2022-10-04T16:20:48.300Z,101587.03
2022-10-04T16:25:51.653Z,101603.22
2022-10-04T16:31:20.362Z,101622.09
2022-10-04T16:36:27.875Z,101621.50
2022-10-04T16:41:40.468Z,101609.44
2022-10-04T16:46:46.287Z,101594.69
2022-10-04T16:52:16.999Z,101584.41
2022-10-04T16:57:23.305Z,101582.00
2022-10-04T17:02:49.136Z,101586.66
2022-10-04T17:08:11.335Z,101588.75
2022-10-04T17:13:24.648Z,101586.81
2022-10-04T17:18:36.304Z,101580.38
2022-10-04T17:24:12.390Z,101572.84
2022-10-04T17:29:34.848Z,101574.16
2022-10-04T17:34:52.449Z,101573.63
2022-10-04T17:40:08.962Z,101564.25
2022-10-04T17:45:32.399Z,101572.69
2022-10-04T17:51:00.509Z,101576.69
2022-10-04T17:56:08.373Z,101578.91
2022-10-04T18:01:16.215Z,101582.09
2022-10-04T18:06:33.511Z,101568.47
2022-10-04T18:11:47.225Z,101564.59
2022-10-04T18:16:54.539Z,101568.47
2022-10-04T18:22:05.160Z,101585.38
2022-10-04T18:27:19.562Z,101592.44
2022-10-04T18:32:34.932Z,101593.78
2022-10-04T18:37:40.748Z,101581.84
2022-10-04T18:42:52.100Z,101574.50
2022-10-04T18:48:00.841Z,101585.25
2022-10-04T18:53:33.961Z,101572.09
2022-10-04T18:59:18.391Z,101586.88
2022-10-04T19:04:33.124Z,101583.94
2022-10-04T19:10:04.043Z,101589.91
2022-10-04T19:15:22.493Z,101593.13
2022-10-04T19:20:33.467Z,101591.88
2022-10-04T19:25:41.114Z,101583.44
2022-10-04T19:30:53.187Z,101560.97
2022-10-04T19:36:06.474Z,101556.97
2022-10-04T19:41:20.552Z,101537.94
2022-10-04T19:46:36.128Z,101536.91
2022-10-04T19:51:46.380Z,101559.75
2022-10-04T19:56:52.791Z,101570.41
2022-10-04T20:01:55.555Z,101544.84
2022-10-04T20:07:00.408Z,101537.66
2022-10-04T20:12:05.793Z,101542.63
2022-10-04T20:17:08.740Z,101542.53
2022-10-04T20:22:51.558Z,101532.94
2022-10-04T20:28:03.551Z,101532.03
2022-10-04T20:33:06.348Z,101547.75
2022-10-04T20:38:31.562Z,101531.81
2022-10-04T20:43:54.649Z,101548.47
2022-10-04T20:48:57.451Z,101544.72
2022-10-04T20:54:01.416Z,101561.22
2022-10-04T20:59:05.703Z,101555.56
2022-10-04T21:04:15.532Z,101559.69
2022-10-04T21:09:18.266Z,101562.06
2022-10-04T21:14:26.516Z,101537.06
2022-10-04T21:19:50.445Z,101527.06
2022-10-04T21:24:56.604Z,101524.19
2022-10-04T21:30:01.819Z,101530.28
2022-10-04T21:35:04.997Z,101523.19
2022-10-04T21:40:09.392Z,101526.47
2022-10-04T21:45:13.731Z,101513.03
2022-10-04T21:50:16.462Z,101504.94
2022-10-04T21:55:19.149Z,101497.59
2022-10-04T22:00:23.276Z,101503.53
2022-10-04T22:05:25.983Z,101497.25
2022-10-04T22:10:28.718Z,101495.34
2022-10-04T22:15:32.815Z,101488.09
2022-10-04T22:20:35.666Z,101484.38
2022-10-04T22:25:38.346Z,101472.00
2022-10-04T22:30:42.387Z,101483.53
2022-10-04T22:35:45.081Z,101486.25
2022-10-04T22:40:47.772Z,101485.28
2022-10-04T22:45:52.621Z,101481.81
2022-10-04T22:50:55.616Z,101494.19
2022-10-04T22:55:58.316Z,101500.31
2022-10-04T23:01:02.532Z,101480.00
2022-10-04T23:06:08.085Z,101460.53
2022-10-04T23:11:11.918Z,101469.28
2022-10-04T23:16:19.544Z,101465.81
2022-10-04T23:21:23.837Z,101459.44
2022-10-04T23:26:35.529Z,101454.91
2022-10-04T23:31:39.654Z,101437.09
2022-10-04T23:36:42.405Z,101434.38
2022-10-04T23:41:45.254Z,101443.03
2022-10-04T23:46:49.476Z,101429.66
2022-10-04T23:51:57.269Z,101434.69
2022-10-04T23:56:59.973Z,101425.53
